createdAt,value
2018-12-14T00:01:22.025Z,11.73
2018-12-14T00:03:50.861Z,10.30
2018-12-14T00:06:19.641Z,12.70
2018-12-14T00:08:49.066Z,10.83
2018-12-14T00:11:17.875Z,10.87
2018-12-14T00:13:46.665Z,11.37
2018-12-14T00:16:15.429Z,11.20
2018-12-14T00:18:44.664Z,12.17
2018-12-14T00:21:13.631Z,11.23
2018-12-14T00:23:42.565Z,10.10
2018-12-14T00:26:12.229Z,11.80
2018-12-14T00:28:40.972Z,10.00
2018-12-14T00:31:09.871Z,10.57
2018-12-14T00:33:38.725Z,11.97
2018-12-14T00:36:07.948Z,11.03
2018-12-14T00:38:37.023Z,10.80
2018-12-14T00:41:05.824Z,11.23
2018-12-14T00:43:34.595Z,9.70
2018-12-14T00:46:03.475Z,10.40
2018-12-14T00:48:32.517Z,11.17
2018-12-14T00:51:01.316Z,10.43
2018-12-14T00:53:30.320Z,10.13
2018-12-14T00:55:59.104Z,9.30
2018-12-14T00:58:27.904Z,9.17
2018-12-14T01:00:56.736Z,8.77
2018-12-14T01:03:25.852Z,9.53
2018-12-14T01:05:54.820Z,10.33
2018-12-14T01:08:23.711Z,10.43
2018-12-14T01:10:52.526Z,9.00
2018-12-14T01:13:21.560Z,10.60
2018-12-14T01:15:50.396Z,11.03
2018-12-14T01:18:19.339Z,9.33
2018-12-14T01:20:48.097Z,10.20
2018-12-14T01:23:17.092Z,9.50
2018-12-14T01:25:45.931Z,10.47
2018-12-14T01:28:14.782Z,9.20
2018-12-14T01:30:43.605Z,10.27
2018-12-14T01:33:12.641Z,8.93
2018-12-14T01:35:42.042Z,8.43
2018-12-14T01:38:10.868Z,8.93
2018-12-14T01:40:39.797Z,8.00
2018-12-14T01:43:08.613Z,8.63
2018-12-14T01:45:37.360Z,10.20
2018-12-14T01:48:06.929Z,8.67
2018-12-14T01:50:35.973Z,8.63
2018-12-14T01:53:04.758Z,9.70
2018-12-14T01:55:33.567Z,8.30
2018-12-14T01:58:02.347Z,8.00
2018-12-14T02:00:31.099Z,9.00
2018-12-14T02:02:59.904Z,7.73
2018-12-14T02:05:28.925Z,8.40
2018-12-14T02:07:57.769Z,8.00
2018-12-14T02:10:26.573Z,8.67
2018-12-14T02:12:55.365Z,7.90
2018-12-14T02:15:24.185Z,8.03
2018-12-14T02:17:52.977Z,9.00
2018-12-14T02:20:21.949Z,7.93
2018-12-14T02:22:50.750Z,7.90
2018-12-14T02:25:19.584Z,9.10
2018-12-14T02:27:48.448Z,8.13
2018-12-14T02:30:40.459Z,7.90
2018-12-14T02:33:09.620Z,8.37
2018-12-14T02:35:38.754Z,7.77
2018-12-14T02:38:07.865Z,7.60
2018-12-14T02:40:36.940Z,7.83
2018-12-14T02:43:05.790Z,7.10
2018-12-14T02:45:34.586Z,7.90
2018-12-14T02:48:03.523Z,7.30
2018-12-14T02:50:32.315Z,7.83
2018-12-14T02:53:01.330Z,6.53
2018-12-14T02:55:30.259Z,7.30
2018-12-14T02:57:59.195Z,7.47
2018-12-14T03:00:27.976Z,6.77
2018-12-14T03:02:56.821Z,7.03
2018-12-14T03:05:25.631Z,7.60
2018-12-14T03:07:54.413Z,7.33
2018-12-14T03:10:23.428Z,6.60
2018-12-14T03:12:52.429Z,6.90
2018-12-14T03:15:21.510Z,6.23
2018-12-14T03:17:50.541Z,6.57
2018-12-14T03:20:19.547Z,6.60
2018-12-14T03:22:48.357Z,6.27
2018-12-14T03:25:17.302Z,7.17
2018-12-14T03:27:46.062Z,7.00
2018-12-14T03:30:14.851Z,6.37
2018-12-14T03:32:43.634Z,6.60
2018-12-14T03:35:12.674Z,6.13
2018-12-14T03:37:41.543Z,7.13
2018-12-14T03:40:10.369Z,6.50
2018-12-14T03:42:39.196Z,7.17
2018-12-14T03:45:07.995Z,6.50
2018-12-14T03:47:36.791Z,7.67
2018-12-14T03:50:05.909Z,7.80
2018-12-14T03:52:34.737Z,8.37
2018-12-14T03:55:03.585Z,9.20
2018-12-14T03:57:32.509Z,10.67
2018-12-14T04:00:01.338Z,9.30
2018-12-14T04:02:30.334Z,8.60
2018-12-14T04:04:59.329Z,8.33
2018-12-14T04:07:28.058Z,7.70
2018-12-14T04:09:57.311Z,8.43
2018-12-14T04:12:26.120Z,7.90
2018-12-14T04:14:55.283Z,7.57
2018-12-14T04:17:24.101Z,7.20
2018-12-14T04:19:52.957Z,7.30
2018-12-14T04:22:21.771Z,7.57
2018-12-14T04:24:50.735Z,7.20
2018-12-14T04:27:19.842Z,7.50
2018-12-14T04:29:48.604Z,7.20
2018-12-14T04:32:17.714Z,7.07
2018-12-14T04:34:46.652Z,7.60
2018-12-14T04:37:15.597Z,7.23
2018-12-14T04:39:44.868Z,7.80
2018-12-14T04:42:13.833Z,7.17
2018-12-14T04:44:42.764Z,7.60
2018-12-14T04:47:12.138Z,6.50
2018-12-14T04:49:41.309Z,5.97
2018-12-14T04:52:12.074Z,8.67
2018-12-14T04:54:40.922Z,7.73
2018-12-14T04:57:10.322Z,7.27
2018-12-14T04:59:39.139Z,6.70
2018-12-14T05:02:08.133Z,6.73
2018-12-14T05:04:37.148Z,6.27
2018-12-14T05:07:05.988Z,7.50
2018-12-14T05:09:35.389Z,7.73
2018-12-14T05:12:04.144Z,6.40
2018-12-14T05:14:33.295Z,6.63
2018-12-14T05:17:02.321Z,8.20
2018-12-14T05:19:31.592Z,11.90
2018-12-14T05:22:01.005Z,12.33
2018-12-14T05:24:29.831Z,11.77
2018-12-14T05:26:59.008Z,12.60
2018-12-14T05:29:28.198Z,13.70
2018-12-14T05:31:57.428Z,12.33
2018-12-14T05:34:26.276Z,11.63
2018-12-14T05:36:55.276Z,12.87
2018-12-14T05:39:24.218Z,14.07
2018-12-14T05:41:53.051Z,18.53
2018-12-14T05:44:21.925Z,22.17
2018-12-14T05:46:50.884Z,19.80
2018-12-14T05:49:20.864Z,22.07
2018-12-14T05:51:49.645Z,18.80
2018-12-14T05:54:18.427Z,27.47
2018-12-14T05:56:47.397Z,20.50
2018-12-14T05:59:16.660Z,22.13
2018-12-14T06:01:45.592Z,19.13
2018-12-14T06:04:14.539Z,18.30
2018-12-14T06:06:43.733Z,20.33
2018-12-14T06:09:12.557Z,21.73
2018-12-14T06:11:41.362Z,22.30
2018-12-14T06:14:10.533Z,19.87
2018-12-14T06:16:39.306Z,20.93
2018-12-14T06:19:08.109Z,19.97
2018-12-14T06:21:36.904Z,21.27
2018-12-14T06:24:05.762Z,22.07
2018-12-14T06:26:35.116Z,19.83
2018-12-14T06:29:03.995Z,21.70
2018-12-14T06:31:33.350Z,21.10
2018-12-14T06:34:02.511Z,17.10
2018-12-14T06:36:31.473Z,19.60
2018-12-14T06:39:00.190Z,20.43
2018-12-14T06:41:29.135Z,17.70
2018-12-14T06:43:57.998Z,15.03
2018-12-14T06:46:26.939Z,19.33
2018-12-14T06:48:55.764Z,15.30
2018-12-14T06:51:24.574Z,19.70
2018-12-14T06:53:53.365Z,111.43
2018-12-14T06:56:22.296Z,32.63
2018-12-14T06:58:51.191Z,55.07
2018-12-14T07:01:20.151Z,49.70
2018-12-14T07:03:49.029Z,61.37
2018-12-14T07:06:17.834Z,53.03
2018-12-14T07:08:46.842Z,57.83
2018-12-14T07:11:15.917Z,52.17
2018-12-14T07:13:44.737Z,45.17
2018-12-14T07:16:13.681Z,46.30
2018-12-14T07:18:42.501Z,42.67
2018-12-14T07:21:11.389Z,42.03
2018-12-14T07:23:40.560Z,40.40
2018-12-14T07:26:09.489Z,39.90
2018-12-14T07:28:38.313Z,38.43
2018-12-14T07:31:07.104Z,42.23
2018-12-14T07:33:36.140Z,40.97
2018-12-14T07:36:05.051Z,38.07
2018-12-14T07:38:33.899Z,40.53
2018-12-14T07:41:02.929Z,41.53
2018-12-14T07:43:31.721Z,39.50
2018-12-14T07:46:00.473Z,34.97
2018-12-14T07:48:29.370Z,34.53
2018-12-14T07:50:58.330Z,36.00
2018-12-14T07:53:27.262Z,33.13
2018-12-14T07:55:56.152Z,39.33
2018-12-14T07:58:25.105Z,32.83
2018-12-14T08:00:54.081Z,34.20
2018-12-14T08:03:23.287Z,32.57
2018-12-14T08:05:52.131Z,30.63
2018-12-14T08:08:21.061Z,26.33
2018-12-14T08:10:49.825Z,28.90
2018-12-14T08:13:19.489Z,32.43
2018-12-14T08:15:48.415Z,27.87
2018-12-14T08:18:17.237Z,28.37
2018-12-14T08:20:46.178Z,33.10
2018-12-14T08:23:15.210Z,23.93
2018-12-14T08:25:44.205Z,24.50
2018-12-14T08:28:13.039Z,24.53
2018-12-14T08:30:41.881Z,26.77
2018-12-14T08:33:10.834Z,22.60
2018-12-14T08:35:40.427Z,23.53
2018-12-14T08:38:09.202Z,24.03
2018-12-14T08:40:38.182Z,21.20
2018-12-14T08:43:07.170Z,20.40
2018-12-14T08:45:36.130Z,20.27
2018-12-14T08:48:05.136Z,20.30
2018-12-14T08:50:34.013Z,24.33
2018-12-14T08:53:03.278Z,19.93
2018-12-14T08:55:32.199Z,18.20
2018-12-14T08:58:01.462Z,20.53
2018-12-14T09:00:30.230Z,18.47
2018-12-14T09:02:59.031Z,16.97
2018-12-14T09:05:27.886Z,19.23
2018-12-14T09:07:56.698Z,18.53
2018-12-14T09:10:25.759Z,18.00
2018-12-14T09:12:54.691Z,18.97
2018-12-14T09:15:23.588Z,21.03
2018-12-14T09:17:52.297Z,16.77
2018-12-14T09:20:21.154Z,19.37
2018-12-14T09:22:50.269Z,16.60
2018-12-14T09:25:19.259Z,15.77
2018-12-14T09:27:48.085Z,17.37
2018-12-14T09:30:17.151Z,18.83
2018-12-14T09:32:46.023Z,16.77
2018-12-14T09:35:14.828Z,17.63
2018-12-14T09:37:43.962Z,16.53
2018-12-14T09:40:12.738Z,16.87
2018-12-14T09:42:41.712Z,14.33
2018-12-14T09:45:10.637Z,14.53
2018-12-14T09:47:39.437Z,16.63
2018-12-14T09:50:08.291Z,14.50
2018-12-14T09:52:37.517Z,14.80
2018-12-14T09:55:06.585Z,15.43
2018-12-14T09:57:35.451Z,14.17
2018-12-14T10:00:04.399Z,15.40
2018-12-14T10:02:33.197Z,14.27
2018-12-14T10:05:02.018Z,12.13
2018-12-14T10:07:30.938Z,14.03
2018-12-14T10:10:00.140Z,13.30
2018-12-14T10:12:29.109Z,14.03
2018-12-14T10:14:58.142Z,12.73
2018-12-14T10:17:27.001Z,12.33
2018-12-14T10:19:55.999Z,11.50
2018-12-14T10:22:24.852Z,11.90
2018-12-14T10:24:53.748Z,12.37
2018-12-14T10:27:22.680Z,12.60
2018-12-14T10:29:51.673Z,11.10
2018-12-14T10:32:20.648Z,13.17
2018-12-14T10:34:49.514Z,12.13
2018-12-14T10:37:18.517Z,15.17
2018-12-14T10:39:47.858Z,12.10
2018-12-14T10:42:16.821Z,11.23
2018-12-14T10:44:46.011Z,11.63
2018-12-14T10:47:14.832Z,11.47
2018-12-14T10:49:43.662Z,11.07
2018-12-14T10:52:12.581Z,11.77
2018-12-14T10:54:41.933Z,10.77
2018-12-14T10:57:16.190Z,11.37
2018-12-14T10:59:41.864Z,11.13
2018-12-14T11:02:10.821Z,9.83
2018-12-14T11:04:39.816Z,10.57
2018-12-14T11:07:08.665Z,10.33
2018-12-14T11:09:37.428Z,10.73
2018-12-14T11:12:06.208Z,8.70
2018-12-14T11:14:35.068Z,10.37
2018-12-14T11:17:03.821Z,11.23
2018-12-14T11:19:32.640Z,9.67
2018-12-14T11:22:01.480Z,9.43
2018-12-14T11:24:30.741Z,10.43
2018-12-14T11:26:59.766Z,9.40
2018-12-14T11:29:28.674Z,9.33
2018-12-14T11:31:57.508Z,9.47
2018-12-14T11:34:29.662Z,9.20
2018-12-14T11:36:57.316Z,9.47
2018-12-14T11:39:26.506Z,9.17
2018-12-14T11:41:55.485Z,8.43
2018-12-14T11:44:24.342Z,8.60
2018-12-14T11:46:53.226Z,9.70
2018-12-14T11:49:21.986Z,9.37
2018-12-14T11:51:50.803Z,8.57
2018-12-14T11:54:19.616Z,8.20
2018-12-14T11:56:48.530Z,10.23
2018-12-14T11:59:17.373Z,8.60
2018-12-14T12:01:46.218Z,7.73
2018-12-14T12:04:15.169Z,9.03
2018-12-14T12:06:44.253Z,8.47
2018-12-14T12:09:13.362Z,7.70
2018-12-14T12:11:42.376Z,8.60
2018-12-14T12:14:11.306Z,9.10
2018-12-14T12:16:40.133Z,10.67
2018-12-14T12:19:08.925Z,8.17
2018-12-14T12:21:38.218Z,8.20
2018-12-14T12:24:07.232Z,8.87
2018-12-14T12:26:36.212Z,7.57
2018-12-14T12:29:05.226Z,9.03
2018-12-14T12:31:34.052Z,8.40
2018-12-14T12:34:02.953Z,7.73
2018-12-14T12:36:31.781Z,8.03
2018-12-14T12:39:00.842Z,7.30
2018-12-14T12:41:29.694Z,7.47
2018-12-14T12:43:58.698Z,7.37
2018-12-14T12:46:27.776Z,7.87
2018-12-14T12:48:56.882Z,6.77
2018-12-14T12:51:25.872Z,8.20
2018-12-14T12:53:54.681Z,7.50
2018-12-14T12:56:23.877Z,6.87
2018-12-14T12:58:52.702Z,8.07
2018-12-14T13:01:21.573Z,6.80
2018-12-14T13:03:50.425Z,6.70
2018-12-14T13:06:19.307Z,7.70
2018-12-14T13:08:48.263Z,7.80
2018-12-14T13:11:17.215Z,6.80
2018-12-14T13:13:46.179Z,6.93
2018-12-14T13:16:15.007Z,6.63
2018-12-14T13:18:43.846Z,6.80
2018-12-14T13:21:12.802Z,6.00
2018-12-14T13:23:41.793Z,6.40
2018-12-14T13:26:10.788Z,7.30
2018-12-14T13:28:39.864Z,6.17
2018-12-14T13:31:08.694Z,5.87
2018-12-14T13:33:37.860Z,6.57
2018-12-14T13:36:07.369Z,7.17
2018-12-14T13:38:36.237Z,6.57
2018-12-14T13:41:05.052Z,6.13
2018-12-14T13:43:33.872Z,6.53
2018-12-14T13:46:02.690Z,6.10
2018-12-14T13:48:31.539Z,6.03
2018-12-14T13:51:00.356Z,6.40
2018-12-14T13:53:29.639Z,6.73
2018-12-14T13:55:58.437Z,6.03
2018-12-14T13:58:27.314Z,5.97
2018-12-14T14:00:56.124Z,6.90
2018-12-14T14:03:24.965Z,5.70
2018-12-14T14:05:53.938Z,6.77
2018-12-14T14:08:23.100Z,6.33
2018-12-14T14:10:52.018Z,6.03
2018-12-14T14:13:20.908Z,6.07
2018-12-14T14:15:50.815Z,5.43
2018-12-14T14:18:19.837Z,5.90
2018-12-14T14:20:48.786Z,5.63
2018-12-14T14:23:17.693Z,5.87
2018-12-14T14:25:47.153Z,5.67
2018-12-14T14:28:16.079Z,5.40
2018-12-14T14:30:44.973Z,5.57
2018-12-14T14:33:13.799Z,5.30
2018-12-14T14:35:42.576Z,5.10
2018-12-14T14:38:11.379Z,5.40
2018-12-14T14:40:40.460Z,5.27
2018-12-14T14:43:09.421Z,5.10
2018-12-14T14:45:38.160Z,5.30
2018-12-14T14:48:06.983Z,5.87
2018-12-14T14:50:35.909Z,4.80
2018-12-14T14:53:04.782Z,5.57
2018-12-14T14:55:33.556Z,4.97
2018-12-14T14:58:02.515Z,5.40
2018-12-14T15:00:32.868Z,5.20
2018-12-14T15:03:01.720Z,5.07
2018-12-14T15:05:30.650Z,4.83
2018-12-14T15:07:59.591Z,5.53
2018-12-14T15:10:28.406Z,4.90
2018-12-14T15:12:57.238Z,5.63
2018-12-14T15:15:26.032Z,4.87
2018-12-14T15:17:54.822Z,4.83
2018-12-14T15:20:23.613Z,4.67
2018-12-14T15:22:52.403Z,4.73
2018-12-14T15:25:21.175Z,4.97
2018-12-14T15:27:50.015Z,4.50
2018-12-14T15:30:18.875Z,4.83
2018-12-14T15:32:47.694Z,4.47
2018-12-14T15:35:16.672Z,5.50
2018-12-14T15:37:45.513Z,4.33
2018-12-14T15:40:14.784Z,4.80
2018-12-14T15:42:43.530Z,4.80
2018-12-14T15:45:13.224Z,4.80
2018-12-14T15:47:42.261Z,4.33
2018-12-14T15:50:11.433Z,4.70
2018-12-14T15:52:40.372Z,4.30
2018-12-14T15:55:10.673Z,4.20
2018-12-14T15:57:39.513Z,4.13
2018-12-14T16:00:08.543Z,4.73
2018-12-14T16:02:37.342Z,4.37
2018-12-14T16:05:06.253Z,4.60
2018-12-14T16:07:35.232Z,4.20
2018-12-14T16:10:04.203Z,4.13
2018-12-14T16:12:33.349Z,4.87
2018-12-14T16:15:02.128Z,4.30
2018-12-14T16:17:31.076Z,4.43
2018-12-14T16:20:00.143Z,4.33
2018-12-14T16:22:33.247Z,4.03
2018-12-14T16:25:02.091Z,4.53
2018-12-14T16:27:31.048Z,3.80
2018-12-14T16:29:59.899Z,6.60
2018-12-14T16:32:28.700Z,4.23
2018-12-14T16:34:57.801Z,6.93
2018-12-14T16:37:26.594Z,8.47
2018-12-14T16:39:55.511Z,9.97
2018-12-14T16:42:24.405Z,7.77
2018-12-14T16:44:53.184Z,5.60
2018-12-14T16:47:21.960Z,7.73
2018-12-14T16:49:50.841Z,7.33
2018-12-14T16:52:19.920Z,12.23
2018-12-14T16:54:48.775Z,9.87
2018-12-14T16:57:17.594Z,13.47
2018-12-14T16:59:46.653Z,9.83
2018-12-14T17:02:15.588Z,11.27
2018-12-14T17:04:44.395Z,8.10
2018-12-14T17:07:13.211Z,10.00
2018-12-14T17:09:42.049Z,8.20
2018-12-14T17:12:11.189Z,8.43
2018-12-14T17:14:40.260Z,9.87
2018-12-14T17:17:09.228Z,7.60
2018-12-14T17:19:38.561Z,6.47
2018-12-14T17:22:07.491Z,8.73
2018-12-14T17:24:36.384Z,9.87
2018-12-14T17:27:05.477Z,8.10
2018-12-14T17:29:34.581Z,9.67
2018-12-14T17:32:03.389Z,7.03
2018-12-14T17:34:32.465Z,10.17
2018-12-14T17:37:01.461Z,9.70
2018-12-14T17:39:30.535Z,6.50
2018-12-14T17:41:59.503Z,9.00
2018-12-14T17:44:29.068Z,14.40
2018-12-14T17:47:00.550Z,14.53
2018-12-14T17:49:30.088Z,17.00
2018-12-14T17:51:58.946Z,13.23
2018-12-14T17:54:27.831Z,8.63
2018-12-14T17:56:56.625Z,10.43
2018-12-14T17:59:26.437Z,10.33
2018-12-14T18:01:55.237Z,8.33
2018-12-14T18:04:24.040Z,9.20
2018-12-14T18:06:52.864Z,7.83
2018-12-14T18:09:21.665Z,9.63
2018-12-14T18:11:50.398Z,8.17
2018-12-14T18:14:19.238Z,9.93
2018-12-14T18:16:48.245Z,10.70
2018-12-14T18:19:17.131Z,8.80
2018-12-14T18:21:45.939Z,9.60
2018-12-14T18:24:14.799Z,8.43
2018-12-14T18:26:44.585Z,9.17
2018-12-14T18:29:14.036Z,6.83
2018-12-14T18:31:42.930Z,9.53
2018-12-14T18:34:11.751Z,6.50
2018-12-14T18:36:40.555Z,14.53
2018-12-14T18:39:09.470Z,9.50
2018-12-14T18:41:38.318Z,9.13
2018-12-14T18:44:07.170Z,11.20
2018-12-14T18:46:36.207Z,8.20
2018-12-14T18:49:05.078Z,18.53
2018-12-14T18:51:33.876Z,18.50
2018-12-14T18:54:02.697Z,18.87
2018-12-14T18:56:31.733Z,13.83
2018-12-14T18:59:00.709Z,12.97
2018-12-14T19:01:29.512Z,14.03
2018-12-14T19:03:58.461Z,14.47
2018-12-14T19:06:27.556Z,16.63
2018-12-14T19:08:56.912Z,19.57
2018-12-14T19:11:25.687Z,14.53
2018-12-14T19:13:54.703Z,25.37
2018-12-14T19:16:23.563Z,19.73
2018-12-14T19:18:52.671Z,20.33
2018-12-14T19:21:21.402Z,22.50
2018-12-14T19:23:51.260Z,21.50
2018-12-14T19:26:23.051Z,23.23
2018-12-14T19:28:51.935Z,20.47
2018-12-14T19:31:20.765Z,17.87
2018-12-14T19:33:49.859Z,15.43
2018-12-14T19:36:18.932Z,16.23
2018-12-14T19:38:48.043Z,16.70
2018-12-14T19:41:16.765Z,15.27
2018-12-14T19:43:45.511Z,12.10
2018-12-14T19:46:14.448Z,15.90
2018-12-14T19:48:43.346Z,9.53
2018-12-14T19:51:12.145Z,12.43
2018-12-14T19:53:41.270Z,11.70
2018-12-14T19:56:10.092Z,11.87
2018-12-14T19:58:38.909Z,10.53
2018-12-14T20:01:07.881Z,11.00
2018-12-14T20:03:36.715Z,12.47
2018-12-14T20:06:05.610Z,9.13
2018-12-14T20:08:34.566Z,10.93
2018-12-14T20:11:03.338Z,9.17
2018-12-14T20:13:32.231Z,6.97
2018-12-14T20:16:01.019Z,8.07
2018-12-14T20:18:30.065Z,9.03
2018-12-14T20:20:59.081Z,10.60
2018-12-14T20:23:27.873Z,6.83
2018-12-14T20:25:56.692Z,9.63
2018-12-14T20:28:25.534Z,6.90
2018-12-14T20:30:54.358Z,8.57
2018-12-14T20:33:23.207Z,7.17
2018-12-14T20:35:52.056Z,8.37
2018-12-14T20:38:21.155Z,7.20
2018-12-14T20:40:50.232Z,8.13
2018-12-14T20:43:19.072Z,10.97
2018-12-14T20:45:47.942Z,16.57
2018-12-14T20:48:16.774Z,11.60
2018-12-14T20:50:45.581Z,9.53
2018-12-14T20:53:14.396Z,11.87
2018-12-14T20:55:43.247Z,8.57
2018-12-14T20:58:12.254Z,8.30
2018-12-14T21:00:41.343Z,9.13
2018-12-14T21:03:10.405Z,7.77
2018-12-14T21:05:39.286Z,8.33
2018-12-14T21:08:08.113Z,9.80
2018-12-14T21:10:36.936Z,8.57
2018-12-14T21:13:05.860Z,7.60
2018-12-14T21:15:34.677Z,8.13
2018-12-14T21:18:03.540Z,7.80
2018-12-14T21:20:33.312Z,6.63
2018-12-14T21:23:02.155Z,9.60
2018-12-14T21:25:31.222Z,7.23
2018-12-14T21:28:00.495Z,7.07
2018-12-14T21:30:29.560Z,6.57
2018-12-14T21:32:58.431Z,7.60
2018-12-14T21:35:27.211Z,8.30
2018-12-14T21:37:56.004Z,9.10
2018-12-14T21:40:24.799Z,11.43
2018-12-14T21:42:53.941Z,8.07
2018-12-14T21:45:22.738Z,10.07
2018-12-14T21:47:51.632Z,7.97
2018-12-14T21:50:20.696Z,8.10
2018-12-14T21:52:49.584Z,8.83
2018-12-14T21:55:18.419Z,7.93
2018-12-14T21:57:47.554Z,7.30
2018-12-14T22:00:16.369Z,7.80
2018-12-14T22:02:45.498Z,6.07
2018-12-14T22:05:14.269Z,6.90
2018-12-14T22:07:43.089Z,6.80
2018-12-14T22:10:11.969Z,6.40
2018-12-14T22:12:40.874Z,6.53
2018-12-14T22:15:09.941Z,6.33
2018-12-14T22:17:39.048Z,6.50
2018-12-14T22:20:07.983Z,7.40
2018-12-14T22:22:36.803Z,5.93
2018-12-14T22:25:05.600Z,6.50
2018-12-14T22:27:34.426Z,7.47
2018-12-14T22:30:03.249Z,6.27
2018-12-14T22:32:32.041Z,5.70
2018-12-14T22:35:01.239Z,5.37
2018-12-14T22:37:30.357Z,5.97
2018-12-14T22:39:59.442Z,6.20
2018-12-14T22:42:28.209Z,6.57
2018-12-14T22:44:56.989Z,6.10
2018-12-14T22:47:26.048Z,5.70
2018-12-14T22:49:54.856Z,10.10
2018-12-14T22:52:23.730Z,10.77
2018-12-14T22:54:52.546Z,11.20
2018-12-14T22:57:21.716Z,8.40
2018-12-14T22:59:51.385Z,8.97
2018-12-14T23:02:20.542Z,9.83
2018-12-14T23:04:49.422Z,9.17
2018-12-14T23:07:18.716Z,8.23
2018-12-14T23:09:47.615Z,6.33
2018-12-14T23:12:16.361Z,7.03
2018-12-14T23:14:45.163Z,7.50
2018-12-14T23:17:14.020Z,6.47
2018-12-14T23:19:43.161Z,5.87
2018-12-14T23:22:12.289Z,6.53
2018-12-14T23:24:41.575Z,6.33
2018-12-14T23:27:10.849Z,6.13
2018-12-14T23:29:39.953Z,6.10
2018-12-14T23:32:08.802Z,5.87
2018-12-14T23:34:37.716Z,6.03
2018-12-14T23:37:06.613Z,5.90
2018-12-14T23:39:35.635Z,5.93
2018-12-14T23:42:04.447Z,5.60
2018-12-14T23:44:33.585Z,6.90
2018-12-14T23:47:02.637Z,5.27
2018-12-14T23:49:31.504Z,5.60
2018-12-14T23:52:00.702Z,5.80
2018-12-14T23:54:30.414Z,6.07
2018-12-14T23:56:59.467Z,5.67
2018-12-14T23:59:28.285Z,6.07
